createdAt,value
2023-10-09T00:04:17.769Z,100760.97
2023-10-09T00:14:20.580Z,100755.13
2023-10-09T00:24:25.813Z,100771.06
2023-10-09T00:34:28.365Z,100749.25
2023-10-09T00:44:49.466Z,100746.47
2023-10-09T00:54:52.986Z,100738.81
2023-10-09T01:04:55.550Z,100726.88
2023-10-09T01:15:01.053Z,100700.81
2023-10-09T01:25:07.307Z,100713.34
2023-10-09T01:35:21.230Z,100707.09
2023-10-09T01:45:23.873Z,100714.50
2023-10-09T01:55:30.594Z,100682.94
2023-10-09T02:05:35.082Z,100682.69
2023-10-09T02:15:46.441Z,100669.00
2023-10-09T02:25:54.464Z,100640.13
2023-10-09T02:36:00.766Z,100655.25
2023-10-09T02:46:15.642Z,100636.28
2023-10-09T02:56:26.807Z,100625.53
2023-10-09T03:06:35.190Z,100594.50
2023-10-09T03:16:38.156Z,100605.16
2023-10-09T03:26:40.649Z,100574.31
2023-10-09T03:36:44.814Z,100558.88
2023-10-09T03:46:47.793Z,100558.69
2023-10-09T03:56:51.449Z,100537.78
2023-10-09T04:06:54.385Z,100556.16
2023-10-09T04:17:07.613Z,100551.94
2023-10-09T04:27:11.092Z,100519.56
2023-10-09T04:37:16.322Z,100504.69
2023-10-09T04:47:18.756Z,100495.44
2023-10-09T04:57:22.837Z,100483.53
2023-10-09T05:07:25.448Z,100485.06
2023-10-09T05:17:28.013Z,100439.03
2023-10-09T05:27:49.270Z,100447.53
2023-10-09T05:38:05.849Z,100441.66
2023-10-09T05:48:19.298Z,100446.63
2023-10-09T05:58:40.293Z,100437.91
2023-10-09T06:08:42.831Z,100412.56
2023-10-09T06:18:55.301Z,100426.47
2023-10-09T06:29:16.007Z,100422.69
2023-10-09T06:39:44.508Z,100418.53
2023-10-09T06:50:07.034Z,100394.66
2023-10-09T07:00:28.642Z,100355.59
2023-10-09T07:10:40.873Z,100334.38
2023-10-09T07:20:46.746Z,100328.47
2023-10-09T07:30:49.456Z,100324.53
2023-10-09T07:41:08.022Z,100308.13
2023-10-09T07:51:14.012Z,100294.75
2023-10-09T08:01:17.633Z,100279.06
2023-10-09T08:11:38.625Z,100263.41
2023-10-09T08:22:00.319Z,100256.59
2023-10-09T08:34:16.576Z,100227.72
2023-10-09T08:42:42.071Z,100212.69
2023-10-09T08:52:44.714Z,100197.59
2023-10-09T09:02:48.528Z,100187.66
2023-10-09T09:12:54.698Z,100178.19
2023-10-09T09:22:57.918Z,100168.75
2023-10-09T09:33:41.107Z,100160.31
2023-10-09T09:43:47.738Z,100143.13
2023-10-09T09:53:51.578Z,100131.94
2023-10-09T10:04:12.999Z,100115.94
2023-10-09T10:14:42.246Z,100101.53
2023-10-09T10:24:53.905Z,100093.13
2023-10-09T10:34:59.380Z,100069.81
2023-10-09T10:45:03.585Z,100056.31
2023-10-09T10:55:30.630Z,100054.66
2023-10-09T11:05:40.972Z,100053.66
2023-10-09T11:15:58.747Z,100063.72
2023-10-09T11:26:21.174Z,100040.56
2023-10-09T11:36:39.983Z,100022.47
2023-10-09T11:46:59.654Z,100023.09
2023-10-09T11:57:02.965Z,100007.97
2023-10-09T12:07:08.812Z,100018.38
2023-10-09T12:17:12.088Z,100014.50
2023-10-09T12:27:15.005Z,100007.59
2023-10-09T12:37:18.964Z,100008.50
2023-10-09T12:47:21.634Z,99982.25
2023-10-09T12:57:25.042Z,99980.22
2023-10-09T13:07:27.501Z,99953.16
2023-10-09T13:17:30.005Z,99978.84
2023-10-09T13:27:35.449Z,99970.88
2023-10-09T13:37:38.774Z,99946.47
2023-10-09T13:47:41.333Z,99941.50
2023-10-09T13:57:46.834Z,99963.03
2023-10-09T14:07:49.555Z,99951.75
2023-10-09T14:17:57.661Z,99951.53
2023-10-09T14:28:00.384Z,99959.44
2023-10-09T14:38:06.202Z,99970.63
2023-10-09T14:48:08.997Z,99966.00
2023-10-09T14:58:12.477Z,99955.88
2023-10-09T15:08:15.455Z,99942.41
2023-10-09T15:18:19.945Z,99961.69
2023-10-09T15:28:23.889Z,99959.78
2023-10-09T15:38:26.620Z,99958.03
2023-10-09T15:48:29.180Z,99955.22
2023-10-09T15:58:31.598Z,99955.50
2023-10-09T16:08:34.110Z,99959.69
2023-10-09T16:18:39.041Z,99972.44
2023-10-09T16:28:41.986Z,99989.50
2023-10-09T16:38:44.966Z,100026.84
2023-10-09T16:48:52.803Z,100033.34
2023-10-09T16:58:56.131Z,99998.53
2023-10-09T17:08:58.860Z,100002.44
2023-10-09T17:19:02.340Z,100007.75
2023-10-09T17:29:05.817Z,100002.25
2023-10-09T17:39:08.367Z,100018.53
2023-10-09T17:49:10.908Z,100009.91
2023-10-09T17:59:13.750Z,99994.34
2023-10-09T18:09:17.235Z,100007.34
2023-10-09T18:19:21.597Z,100003.38
2023-10-09T18:29:25.539Z,100020.44
2023-10-09T18:39:28.271Z,100018.81
2023-10-09T18:49:31.188Z,100029.28
2023-10-09T18:59:34.222Z,100038.47
2023-10-09T19:09:36.775Z,100055.16
2023-10-09T19:19:40.286Z,100064.53
2023-10-09T19:29:46.006Z,100056.66
2023-10-09T19:39:48.579Z,100063.50
2023-10-09T19:49:51.218Z,100059.31
2023-10-09T19:59:56.202Z,100067.50
2023-10-09T20:10:01.230Z,100066.34
2023-10-09T20:20:08.970Z,100038.97
2023-10-09T20:30:15.975Z,100056.47
2023-10-09T20:40:23.790Z,100057.91
2023-10-09T20:50:27.179Z,100084.91
2023-10-09T21:00:33.458Z,100088.34
2023-10-09T21:10:42.626Z,100078.78
2023-10-09T21:20:45.091Z,100108.94
2023-10-09T21:30:47.772Z,100111.06
2023-10-09T21:40:52.483Z,100084.34
2023-10-09T21:50:55.772Z,100093.38
2023-10-09T22:00:58.280Z,100088.03
2023-10-09T22:11:02.978Z,100095.56
2023-10-09T22:21:11.069Z,100083.09
2023-10-09T22:31:17.071Z,100069.22
2023-10-09T22:41:20.979Z,100068.78
2023-10-09T22:51:26.541Z,100065.38
2023-10-09T23:01:29.905Z,100097.91
2023-10-09T23:11:34.032Z,100104.38
2023-10-09T23:21:54.966Z,100117.38
2023-10-09T23:31:59.776Z,100142.94
2023-10-09T23:42:03.213Z,100175.66
2023-10-09T23:52:08.673Z,100176.63
